Time;durP1;ratioP1;P1;durP2;ratioP2;P2;SDS_P1;SDS_P2;PMS_P1;PMS_P2;Temp;Humidity;BMP_temperature;BMP_pressure;BME280_temperature;BME280_humidity;BME280_pressure;Samples;Min_cycle;Max_cycle;Signal;HPM_P1;HPM_P2
2021/07/11 00:00:28;;;;;;;5.50;4.78;;;;;;;19.70;70.09;98534.69;5093132;28;20093;-78
2021/07/11 00:02:54;;;;;;;6.03;3.70;;;;;;;19.60;70.46;98535.03;5075151;28;20076;-79
2021/07/11 00:05:22;;;;;;;5.05;3.45;;;;;;;19.55;70.57;98532.91;5092909;28;20040;-78
2021/07/11 00:07:48;;;;;;;3.83;3.22;;;;;;;19.39;71.22;98528.63;5041754;28;20044;-77
2021/07/11 00:10:14;;;;;;;4.60;3.08;;;;;;;19.38;71.52;98526.16;5093420;28;20040;-77
2021/07/11 00:12:40;;;;;;;6.47;3.60;;;;;;;19.26;71.69;98519.63;5093024;28;20047;-78
2021/07/11 00:15:07;;;;;;;3.88;3.35;;;;;;;19.20;71.96;98521.22;5074939;28;20060;-77
2021/07/11 00:17:34;;;;;;;3.47;3.17;;;;;;;19.26;72.06;98530.44;5075044;28;20048;-78
2021/07/11 00:20:00;;;;;;;5.15;4.43;;;;;;;19.32;72.39;98535.06;5093075;28;20044;-76
2021/07/11 00:22:26;;;;;;;5.30;4.45;;;;;;;19.25;72.40;98531.47;5075169;28;20468;-76
2021/07/11 00:24:51;;;;;;;5.50;4.30;;;;;;;19.28;72.28;98536.50;5093920;28;20071;-76
2021/07/11 00:27:17;;;;;;;7.35;4.95;;;;;;;19.32;72.07;98538.59;5097160;28;20051;-77
2021/07/11 00:29:43;;;;;;;6.68;4.80;;;;;;;19.32;72.22;98540.47;5062439;28;20503;-77
2021/07/11 00:32:09;;;;;;;5.97;4.68;;;;;;;19.21;72.40;98543.72;5097107;28;20101;-79
2021/07/11 00:34:35;;;;;;;10.30;5.82;;;;;;;19.14;72.22;98536.41;5096928;28;20064;-79
2021/07/11 00:37:01;;;;;;;8.85;6.60;;;;;;;19.07;72.60;98538.22;5096930;28;20126;-79
2021/07/11 00:39:27;;;;;;;8.40;6.65;;;;;;;19.10;72.52;98539.69;5079161;28;20054;-78
2021/07/11 00:41:54;;;;;;;7.70;6.45;;;;;;;19.11;72.33;98536.81;5062303;28;20138;-78
2021/07/11 00:44:20;;;;;;;9.48;7.40;;;;;;;19.08;72.58;98539.91;5062086;28;20151;-77
2021/07/11 00:46:48;;;;;;;10.40;7.70;;;;;;;19.04;73.13;98549.44;5078634;28;20043;-76
2021/07/11 00:49:14;;;;;;;10.70;6.82;;;;;;;19.00;72.66;98545.47;5078814;28;20399;-78
2021/07/11 00:51:42;;;;;;;10.45;7.20;;;;;;;19.00;72.80;98544.63;5078650;28;20039;-77
2021/07/11 00:54:08;;;;;;;10.20;7.28;;;;;;;19.06;72.51;98536.53;5078667;28;20056;-76
2021/07/11 00:56:35;;;;;;;16.73;8.57;;;;;;;19.11;72.70;98542.22;5078452;28;20517;-78
2021/07/11 00:59:01;;;;;;;12.55;9.32;;;;;;;19.17;72.87;98535.16;5045041;28;20040;-77
2021/07/11 01:01:45;;;;;;;11.52;9.35;;;;;;;19.20;72.85;98539.34;5078502;28;20036;-78
2021/07/11 01:04:37;;;;;;;12.35;9.25;;;;;;;19.33;72.73;98539.44;5062883;28;20059;-78
2021/07/11 01:07:04;;;;;;;11.05;8.82;;;;;;;19.32;73.20;98537.75;5029649;28;20048;-76
2021/07/11 01:09:48;;;;;;;12.18;9.75;;;;;;;19.31;73.20;98531.50;5061626;28;20048;-77
2021/07/11 01:12:20;;;;;;;17.55;9.80;;;;;;;19.38;73.12;98528.84;5062196;28;20048;-77
2021/07/11 01:14:48;;;;;;;11.48;9.60;;;;;;;19.49;72.78;98527.47;5061556;28;20098;-77
2021/07/11 01:17:18;;;;;;;12.57;9.90;;;;;;;19.42;73.24;98527.41;5045609;28;20168;-79
2021/07/11 01:19:49;;;;;;;16.70;9.40;;;;;;;19.48;73.32;98531.19;5061576;28;20124;-76
2021/07/11 01:22:18;;;;;;;13.13;8.70;;;;;;;19.42;73.61;98533.66;5061236;28;20139;-77
2021/07/11 01:24:58;;;;;;;12.85;10.20;;;;;;;19.37;73.44;98529.91;5044813;28;20423;-76
2021/07/11 01:27:24;;;;;;;12.45;9.00;;;;;;;19.27;74.04;98526.69;5061497;28;20067;-76
2021/07/11 01:29:51;;;;;;;9.77;8.75;;;;;;;19.17;74.80;98529.75;5028595;28;20043;-77
2021/07/11 01:32:17;;;;;;;12.05;9.10;;;;;;;19.16;74.60;98534.31;5078108;28;20052;-77
2021/07/11 01:34:47;;;;;;;11.50;9.52;;;;;;;19.21;74.60;98536.44;5037085;28;20517;-77
2021/07/11 01:37:14;;;;;;;11.18;8.85;;;;;;;19.33;74.22;98539.44;5044114;28;20145;-77
2021/07/11 01:39:41;;;;;;;16.65;8.82;;;;;;;19.26;74.37;98538.56;5046631;28;20044;-77
2021/07/11 01:42:07;;;;;;;14.40;8.90;;;;;;;19.17;74.46;98532.44;5048099;28;20042;-78
2021/07/11 01:44:33;;;;;;;12.27;8.68;;;;;;;19.13;74.76;98547.44;5081066;28;20054;-77
2021/07/11 01:47:01;;;;;;;9.63;8.27;;;;;;;19.14;74.55;98543.69;5081416;28;20075;-76
2021/07/11 01:49:27;;;;;;;9.60;8.55;;;;;;;19.16;74.17;98539.75;5097762;28;20088;-76
2021/07/11 01:51:57;;;;;;;10.32;8.55;;;;;;;19.09;74.23;98543.44;5075822;28;20040;-77
2021/07/11 01:54:27;;;;;;;15.00;9.03;;;;;;;18.97;74.80;98551.28;5095362;28;20052;-78
2021/07/11 01:56:53;;;;;;;12.13;8.95;;;;;;;18.93;74.95;98547.28;5027862;28;20040;-76
2021/07/11 01:59:22;;;;;;;11.40;9.05;;;;;;;18.95;75.09;98537.06;5077279;28;20050;-76
2021/07/11 02:02:00;;;;;;;12.50;9.55;;;;;;;18.98;74.64;98536.69;5095349;28;20093;-77
2021/07/11 02:04:29;;;;;;;11.35;10.25;;;;;;;19.12;74.66;98534.94;5077358;28;20090;-78
2021/07/11 02:06:55;;;;;;;11.60;9.95;;;;;;;19.26;74.27;98539.41;5077236;28;20131;-77
2021/07/11 02:09:23;;;;;;;14.68;10.68;;;;;;;19.28;73.90;98537.31;5077146;28;20040;-77
2021/07/11 02:11:58;;;;;;;12.05;10.25;;;;;;;19.15;73.90;98537.25;5061341;28;20050;-77
2021/07/11 02:14:38;;;;;;;11.55;10.00;;;;;;;19.26;74.20;98538.56;5061620;28;20055;-78
2021/07/11 02:17:14;;;;;;;11.30;10.15;;;;;;;19.24;74.19;98546.06;5060608;28;20044;-77
2021/07/11 02:19:49;;;;;;;14.32;9.95;;;;;;;19.29;73.88;98539.00;5061622;28;20047;-76
2021/07/11 02:22:15;;;;;;;13.48;10.20;;;;;;;19.29;73.68;98538.16;5076860;28;20072;-76
2021/07/11 02:24:43;;;;;;;11.77;10.10;;;;;;;19.37;73.66;98546.16;5060452;28;20486;-76
2021/07/11 02:27:13;;;;;;;12.20;10.23;;;;;;;19.36;73.73;98556.13;5076819;28;20089;-77
2021/07/11 02:29:44;;;;;;;18.80;11.93;;;;;;;19.37;73.36;98551.56;5094725;28;20047;-77
2021/07/11 02:32:10;;;;;;;13.10;10.60;;;;;;;19.39;73.57;98546.78;5077874;28;20601;-77
2021/07/11 02:34:37;;;;;;;12.32;11.13;;;;;;;19.32;73.59;98543.19;5094448;28;20403;-75
2021/07/11 02:37:05;;;;;;;16.77;11.30;;;;;;;19.40;73.53;98540.31;5043711;28;20047;-76
2021/07/11 02:39:34;;;;;;;;;;;;;;;19.63;72.84;98551.78;5077246;28;20051;-75
2021/07/11 02:42:03;;;;;;;;;;;;;;;19.70;72.62;98556.38;5060620;28;19924;-75
2021/07/11 02:44:31;;;;;;;12.63;11.32;;;;;;;19.63;72.76;98554.47;5076586;28;19919;-76
2021/07/11 02:47:02;;;;;;;15.77;11.30;;;;;;;19.60;72.94;98551.28;5071125;28;20454;-77
2021/07/11 02:49:31;;;;;;;16.63;11.85;;;;;;;19.56;72.52;98550.84;5076839;28;20047;-77
2021/07/11 02:52:06;;;;;;;14.32;11.13;;;;;;;19.60;72.41;98549.41;5038779;28;20051;-77
2021/07/11 02:54:35;;;;;;;15.13;11.35;;;;;;;19.60;72.69;98559.44;5061833;28;20450;-76
2021/07/11 02:57:03;;;;;;;19.17;11.55;;;;;;;19.48;72.25;98555.56;5030892;28;20047;-76
2021/07/11 02:59:30;;;;;;;13.40;11.07;;;;;;;19.54;71.82;98555.63;5042964;28;20044;-77
2021/07/11 03:02:00;;;;;;;15.40;12.02;;;;;;;19.69;71.56;98555.53;5088745;28;20078;-77
2021/07/11 03:04:26;;;;;;;12.60;11.32;;;;;;;19.73;71.49;98556.81;5059179;28;20467;-77
2021/07/11 03:06:52;;;;;;;12.85;11.30;;;;;;;19.88;70.50;98552.09;5076177;28;20074;-78
2021/07/11 03:09:18;;;;;;;12.40;11.18;;;;;;;19.89;70.47;98569.19;5093744;28;20059;-78
2021/07/11 03:11:44;;;;;;;11.38;10.30;;;;;;;19.74;70.13;98560.34;5059126;28;20044;-77
2021/07/11 03:14:11;;;;;;;13.32;11.93;;;;;;;19.69;70.79;98549.28;5059057;28;20051;-78
2021/07/11 03:16:53;;;;;;;14.02;12.00;;;;;;;19.61;70.82;98559.22;5075683;28;20054;-77
2021/07/11 03:19:21;;;;;;;17.92;11.90;;;;;;;19.72;70.66;98559.72;5028156;28;20410;-78
2021/07/11 03:21:49;;;;;;;13.60;11.80;;;;;;;19.95;70.19;98560.25;5059129;28;20055;-77
2021/07/11 03:24:17;;;;;;;12.45;11.05;;;;;;;20.20;69.41;98563.28;5059526;28;20101;-78
2021/07/11 03:26:43;;;;;;;15.75;10.90;;;;;;;20.43;68.63;98573.78;5059362;28;20075;-78
2021/07/11 03:29:25;;;;;;;13.73;11.48;;;;;;;20.36;68.82;98571.06;5093407;28;20044;-78
2021/07/11 03:31:55;;;;;;;12.60;11.23;;;;;;;20.26;68.32;98581.44;5076981;28;20486;-88
2021/07/11 03:34:32;;;;;;;15.07;12.05;;;;;;;20.13;68.73;98573.28;5075983;28;20121;-84
2021/07/11 03:37:15;;;;;;;17.08;11.55;;;;;;;20.20;68.62;98570.56;5060958;28;20054;-81
2021/07/11 03:39:46;;;;;;;14.20;11.65;;;;;;;20.40;68.21;98570.66;5058822;28;20063;-81
2021/07/11 03:42:16;;;;;;;14.30;11.10;;;;;;;20.37;68.06;98575.44;5059795;28;20094;-77
2021/07/11 03:44:47;;;;;;;16.65;11.18;;;;;;;20.19;68.61;98587.88;5026037;28;20040;-83
2021/07/11 03:47:15;;;;;;;12.77;11.45;;;;;;;20.18;68.52;98576.22;5042790;28;20498;-77
2021/07/11 03:49:41;;;;;;;13.00;11.32;;;;;;;20.40;68.41;98576.06;5093122;28;20048;-80
2021/07/11 03:52:07;;;;;;;12.27;11.07;;;;;;;20.49;67.75;98593.84;5058631;28;20052;-78
2021/07/11 03:54:36;;;;;;;11.85;10.75;;;;;;;20.66;67.54;98580.78;5074854;28;20066;-80
2021/07/11 03:57:03;;;;;;;12.90;11.60;;;;;;;20.63;67.44;98578.47;5093384;28;20048;-78
2021/07/11 03:59:31;;;;;;;12.40;11.20;;;;;;;20.68;67.24;98587.66;5058387;28;20040;-81
2021/07/11 04:01:57;;;;;;;15.05;11.95;;;;;;;20.74;67.14;98588.72;5058526;28;20127;-79
2021/07/11 04:04:23;;;;;;;13.15;11.82;;;;;;;20.83;66.51;98579.31;5066786;28;20130;-78
2021/07/11 04:06:49;;;;;;;14.52;11.60;;;;;;;20.79;67.22;98586.19;5060613;28;20047;-79
2021/07/11 04:09:17;;;;;;;12.30;11.13;;;;;;;20.96;66.19;98578.50;5092947;28;20036;-80
2021/07/11 04:11:43;;;;;;;14.40;11.30;;;;;;;20.97;66.06;98602.72;5041911;28;20065;-78
2021/07/11 04:14:08;;;;;;;13.40;11.80;;;;;;;20.90;66.68;98596.47;5075189;28;20499;-82
2021/07/11 04:16:34;;;;;;;21.33;12.07;;;;;;;20.72;67.26;98588.06;5092926;28;20487;-81
2021/07/11 04:19:00;;;;;;;12.30;11.15;;;;;;;20.88;66.89;98587.69;5058394;28;20467;-81
